Time;durP1;ratioP1;P1;durP2;ratioP2;P2;SDS_P1;SDS_P2;PMS_P1;PMS_P2;Temp;Humidity;BMP_temperature;BMP_pressure;BME280_temperature;BME280_humidity;BME280_pressure;Samples;Min_cycle;Max_cycle;Signal;HPM_P1;HPM_P2
2023/05/11 00:00:00;;;;;;;7.13;3.60;;;;;;;;;;5014993;28;20203;-87
2023/05/11 00:02:26;;;;;;;3.63;2.87;;;;;;;;;;5013831;28;20305;-86
2023/05/11 00:04:53;;;;;;;7.23;3.17;;;6.50;93.90;;;;;;5013672;28;20653;-86
2023/05/11 00:07:20;;;;;;;11.93;3.97;;;;;;;;;;5054089;28;20192;-87
2023/05/11 00:09:46;;;;;;;4.70;3.27;;;;;;;;;;5034284;28;20186;-87
2023/05/11 00:12:13;;;;;;;6.53;3.47;;;;;;;;;;5014415;28;20189;-87
2023/05/11 00:14:39;;;;;;;13.47;3.77;;;;;;;;;;5015312;28;20318;-87
2023/05/11 00:17:05;;;;;;;6.03;3.40;;;;;;;;;;5014680;28;20181;-87
2023/05/11 00:19:31;;;;;;;7.17;3.40;;;;;;;;;;5014809;28;20180;-87
2023/05/11 00:21:58;;;;;;;4.63;3.17;;;;;;;;;;5013345;28;20189;-86
2023/05/11 00:24:24;;;;;;;5.13;3.07;;;;;;;;;;5013611;28;20209;-87
2023/05/11 00:26:50;;;;;;;9.47;3.97;;;;;;;;;;5013301;28;20181;-87
2023/05/11 00:29:17;;;;;;;7.30;3.53;;;;;;;;;;5029750;28;20283;-86
2023/05/11 00:31:46;;;;;;;4.33;3.30;;;;;;;;;;5030093;28;20200;-87
2023/05/11 00:34:14;;;;;;;6.27;3.57;;;5.90;99.90;;;;;;5013059;28;20626;-87
2023/05/11 00:36:41;;;;;;;11.07;3.67;;;;;;;;;;5029823;28;20189;-87
2023/05/11 00:39:08;;;;;;;3.97;3.57;;;5.70;99.90;;;;;;5014507;28;20225;-87
2023/05/11 00:41:34;;;;;;;3.53;3.13;;;;;;;;;;5014189;28;20304;-86
2023/05/11 00:44:00;;;;;;;4.60;3.47;;;;;;;;;;5029712;28;20284;-85
2023/05/11 00:46:27;;;;;;;3.87;3.33;;;;;;;;;;5013031;28;20181;-86
2023/05/11 00:48:53;;;;;;;5.33;2.73;;;;;;;;;;5014335;28;20205;-86
2023/05/11 00:51:19;;;;;;;12.07;4.03;;;;;;;;;;5014918;28;20272;-87
2023/05/11 00:53:45;;;;;;;6.97;3.77;;;;;;;;;;5014676;28;20178;-87
2023/05/11 00:56:11;;;;;;;6.20;3.53;;;;;;;;;;5012727;28;20181;-86
2023/05/11 00:58:38;;;;;;;3.47;2.47;;;;;;;;;;5013468;28;20268;-86
2023/05/11 01:01:04;;;;;;;9.23;3.30;;;;;;;;;;5013849;28;20294;-87
2023/05/11 01:03:31;;;;;;;9.17;3.20;;;5.50;99.90;;;;;;5012756;28;20224;-87
2023/05/11 01:05:57;;;;;;;3.53;2.67;;;;;;;;;;5045759;28;20203;-86
2023/05/11 01:08:41;;;;;;;5.80;3.63;;;5.50;99.90;;;;;;5013003;28;20623;-85
2023/05/11 01:11:27;;;;;;;3.60;2.87;;;5.50;99.90;;;;;;5012757;28;20247;-86
2023/05/11 01:14:00;;;;;;;6.17;3.27;;;5.50;99.90;;;;;;5014324;28;20189;-88
2023/05/11 01:16:29;;;;;;;4.17;3.33;;;5.40;99.90;;;;;;5014036;28;20204;-88
2023/05/11 01:19:23;;;;;;;4.47;2.97;;;5.40;99.90;;;;;;5014767;28;20177;-88
2023/05/11 01:21:50;;;;;;;4.13;3.53;;;;;;;;;;5014933;28;20201;-88
2023/05/11 01:24:25;;;;;;;4.50;3.10;;;5.40;99.90;;;;;;5014154;28;20633;-87
2023/05/11 01:27:19;;;;;;;8.60;3.60;;;5.30;99.90;;;;;;5014014;28;20161;-87
2023/05/11 01:30:07;;;;;;;5.87;3.33;;;5.30;99.90;;;;;;5013861;28;20224;-87
2023/05/11 01:32:35;;;;;;;6.73;3.70;;;5.30;99.90;;;;;;5013239;28;20184;-87
2023/05/11 01:35:13;;;;;;;6.30;4.23;;;5.30;99.90;;;;;;5015607;28;20178;-88
2023/05/11 01:37:45;;;;;;;6.50;3.97;;;5.20;99.90;;;;;;5015713;28;20235;-88
2023/05/11 01:40:16;;;;;;;10.60;4.17;;;5.20;99.90;;;;;;5033416;28;20248;-86
2023/05/11 01:42:49;;;;;;;5.60;3.23;;;5.10;99.90;;;;;;5070655;28;20204;-87
2023/05/11 01:45:17;;;;;;;12.90;3.97;;;5.10;99.90;;;;;;5048172;28;20606;-87
2023/05/11 01:47:47;;;;;;;7.77;3.37;;;5.10;99.90;;;;;;5012829;28;20211;-87
2023/05/11 01:50:14;;;;;;;5.50;3.20;;;5.00;99.90;;;;;;5013815;28;20276;-87
2023/05/11 01:52:40;;;;;;;4.77;3.30;;;;;;;;;;5012861;28;20192;-87
2023/05/11 01:55:07;;;;;;;8.00;2.67;;;5.00;99.90;;;;;;5015801;28;20181;-87
2023/05/11 01:57:35;;;;;;;6.20;3.70;;;5.10;99.90;;;;;;5017238;28;20181;-87
2023/05/11 02:00:02;;;;;;;3.17;2.60;;;5.70;99.90;;;;;;5017669;28;20193;-87
2023/05/11 02:02:29;;;;;;;5.60;3.07;;;5.10;99.90;;;;;;5016213;28;20224;-88
2023/05/11 02:04:56;;;;;;;5.77;2.90;;;5.10;99.90;;;;;;5017375;28;20188;-88
2023/05/11 02:07:23;;;;;;;5.10;2.87;;;5.10;99.90;;;;;;5017097;28;20216;-88
2023/05/11 02:09:50;;;;;;;6.80;3.10;;;5.00;99.90;;;;;;5017315;28;20205;-88
2023/05/11 02:12:18;;;;;;;3.57;2.53;;;5.10;99.90;;;;;;5017029;28;20181;-88
2023/05/11 02:14:46;;;;;;;3.90;3.20;;;5.80;99.90;;;;;;5017177;28;20181;-88
2023/05/11 02:17:14;;;;;;;3.63;3.07;;;5.10;99.90;;;;;;5017368;28;20627;-87
2023/05/11 02:19:42;;;;;;;7.87;3.13;;;5.00;99.90;;;;;;5016809;28;20304;-86
2023/05/11 02:22:08;;;;;;;3.33;2.57;;;4.90;99.90;;;;;;5017208;28;20186;-87
2023/05/11 02:24:35;;;;;;;4.53;2.63;;;;;;;;;;5016528;28;20181;-87
2023/05/11 02:27:01;;;;;;;3.43;2.73;;;;;;;;;;5016848;28;20193;-87
2023/05/11 02:29:27;;;;;;;7.57;3.67;;;;;;;;;;5016749;28;20235;-87
2023/05/11 02:32:02;;;;;;;4.00;3.00;;;4.70;99.90;;;;;;5031983;28;20646;-87
2023/05/11 02:34:31;;;;;;;4.50;3.03;;;4.60;99.90;;;;;;5016789;28;20248;-87
2023/05/11 02:37:01;;;;;;;4.27;2.37;;;4.60;99.90;;;;;;5048836;28;20558;-87
2023/05/11 02:39:33;;;;;;;5.77;3.00;;;4.50;99.90;;;;;;5047952;28;20225;-87
2023/05/11 02:42:17;;;;;;;3.83;2.73;;;4.50;99.90;;;;;;5048629;28;20189;-88
2023/05/11 02:45:01;;;;;;;6.10;3.23;;;4.40;99.90;;;;;;5016834;28;20169;-87
2023/05/11 02:47:31;;;;;;;5.27;2.70;;;4.40;99.90;;;;;;5048131;28;20184;-88
2023/05/11 02:50:00;;;;;;;4.67;3.30;;;4.30;99.90;;;;;;5016636;28;20209;-87
2023/05/11 02:52:27;;;;;;;6.27;2.43;;;4.30;99.90;;;;;;5016670;28;20178;-87
2023/05/11 02:54:55;;;;;;;6.10;2.90;;;4.20;99.90;;;;;;5048258;28;20208;-87
2023/05/11 02:57:21;;;;;;;7.87;3.17;;;;;;;;;;5048118;28;20603;-87
2023/05/11 02:59:47;;;;;;;4.27;3.17;;;;;;;;;;5015003;28;20191;-87
2023/05/11 03:02:13;;;;;;;6.97;3.37;;;;;;;;;;5015038;28;20287;-87
2023/05/11 03:04:39;;;;;;;7.50;3.33;;;;;;;;;;5014405;28;20653;-88
2023/05/11 03:07:06;;;;;;;9.73;4.00;;;4.10;99.90;;;;;;5016143;28;20650;-87
2023/05/11 03:09:33;;;;;;;7.07;3.93;;;4.20;99.90;;;;;;5015866;28;20180;-87
2023/05/11 03:11:59;;;;;;;3.47;2.83;;;;;;;;;;5015342;28;20181;-86
2023/05/11 03:14:26;;;;;;;4.80;3.33;;;4.20;99.90;;;;;;5014800;28;20221;-86
2023/05/11 03:16:53;;;;;;;7.60;3.80;;;4.20;99.90;;;;;;5014988;28;20196;-86
2023/05/11 03:19:20;;;;;;;5.50;3.03;;;;;;;;;;5014388;28;20185;-86
2023/05/11 03:21:46;;;;;;;5.00;3.43;;;4.20;99.90;;;;;;5031311;28;20259;-87
2023/05/11 03:24:13;;;;;;;4.17;2.67;;;4.30;99.90;;;;;;5048001;28;20267;-87
2023/05/11 03:26:42;;;;;;;4.87;3.10;;;4.30;99.90;;;;;;5015412;28;20185;-86
2023/05/11 03:29:08;;;;;;;4.87;3.20;;;;;;;;;;5047670;28;20533;-84
2023/05/11 03:31:34;;;;;;;4.40;2.70;;;;;;;;;;5014443;28;20186;-86
2023/05/11 03:34:00;;;;;;;4.63;3.40;;;;;;;;;;5015958;28;20196;-87
2023/05/11 03:36:27;;;;;;;6.80;2.93;;;4.60;99.90;;;;;;5037525;28;20284;-86
2023/05/11 03:38:57;;;;;;;4.33;2.97;;;4.70;99.90;;;;;;5015387;28;20259;-87
2023/05/11 03:41:25;;;;;;;3.77;2.73;;;4.80;99.90;;;;;;5047072;28;20213;-85
2023/05/11 03:43:51;;;;;;;3.40;2.83;;;;;;;;;;5015776;28;20174;-86
2023/05/11 03:46:21;;;;;;;7.53;3.73;;;5.00;99.90;;;;;;5015326;28;20197;-86
2023/05/11 03:48:47;;;;;;;4.90;3.10;;;;;;;;;;5015949;28;20185;-86
2023/05/11 03:51:14;;;;;;;4.87;3.23;;;;;;;;;;5046795;28;20185;-87
2023/05/11 03:53:40;;;;;;;4.90;3.60;;;5.30;99.90;;;;;;5046318;28;20204;-88
2023/05/11 03:56:06;;;;;;;5.13;3.13;;;5.40;99.90;;;;;;5013289;28;20561;-87
2023/05/11 03:58:32;;;;;;;4.50;2.70;;;;;;;;;;5053432;28;20189;-86
2023/05/11 04:00:58;;;;;;;5.70;3.30;;;;;;;;;;5028644;28;20197;-86
2023/05/11 04:03:24;;;;;;;5.10;2.90;;;;;;;;;;5048910;28;20189;-85
2023/05/11 04:05:50;;;;;;;6.50;2.87;;;5.80;99.90;;;;;;5014653;28;20641;-85
2023/05/11 04:08:16;;;;;;;4.73;2.50;;;;;;;;;;5014223;28;20189;-86
2023/05/11 04:10:42;;;;;;;3.47;2.23;;;;;;;;;;5047289;28;20556;-86
2023/05/11 04:13:08;;;;;;;2.33;2.13;;;;;;;;;;5047076;28;20181;-86
2023/05/11 04:15:36;;;;;;;7.93;2.73;;;;;;;;;;5046548;28;20188;-86
2023/05/11 04:18:02;;;;;;;3.30;2.73;;;;;;;;;;5030779;28;20188;-85
2023/05/11 04:20:27;;;;;;;5.80;2.37;;;6.80;99.90;;;;;;5013461;28;20201;-86
2023/05/11 04:22:53;;;;;;;5.67;2.77;;;7.00;99.90;;;;;;5013332;28;20177;-86
2023/05/11 04:25:19;;;;;;;10.67;4.50;;;;;;;;;;5012799;28;20188;-85
2023/05/11 04:27:45;;;;;;;5.60;2.60;;;7.20;99.90;;;;;;5013578;28;20307;-85
2023/05/11 04:30:11;;;;;;;3.27;2.40;;;7.30;99.90;;;;;;5012323;28;20575;-86
2023/05/11 04:32:37;;;;;;;3.07;2.10;;;;;;;;;;5012965;28;20256;-86
2023/05/11 04:35:03;;;;;;;10.37;2.30;;;7.70;99.90;;;;;;5014186;28;20637;-87
2023/05/11 04:37:29;;;;;;;4.90;2.80;;;;;;;;;;4996138;28;20237;-86
2023/05/11 04:39:56;;;;;;;3.80;2.70;;;7.70;98.40;;;;;;5012257;28;20185;-86
2023/05/11 04:42:22;;;;;;;6.03;3.03;;;;;;;;;;5014176;28;20681;-87
2023/05/11 04:44:48;;;;;;;3.70;2.27;;;;;;;;;;5012794;28;20212;-86
2023/05/11 04:47:14;;;;;;;2.93;2.50;;;;;;;;;;5014876;28;20639;-87
2023/05/11 04:49:40;;;;;;;4.47;2.83;;;;;;;;;;5014271;28;20200;-87
2023/05/11 04:52:06;;;;;;;5.40;2.40;;;;;;;;;;5011943;28;20193;-87
2023/05/11 04:54:32;;;;;;;6.30;2.43;;;8.30;97.30;;;;;;5012668;28;20676;-88
2023/05/11 04:56:58;;;;;;;3.20;2.03;;;;;;;;;;5013536;28;20223;-86
2023/05/11 04:59:24;;;;;;;7.90;2.40;;;8.40;96.80;;;;;;5013385;28;20189;-87
2023/05/11 05:01:50;;;;;;;5.87;2.50;;;;;;;;;;5013326;28;20213;-86
2023/05/11 05:04:15;;;;;;;4.23;2.87;;;8.60;95.00;;;;;;5016240;28;20181;-86
2023/05/11 05:06:41;;;;;;;6.27;2.40;;;;;;;;;;5018159;28;20726;-85
2023/05/11 05:09:10;;;;;;;3.13;2.10;;;8.90;93.60;;;;;;5018833;28;20284;-85
2023/05/11 05:11:35;;;;;;;4.13;2.70;;;9.00;93.30;;;;;;5016198;28;20177;-84
2023/05/11 05:14:01;;;;;;;5.00;2.43;;;;;;;;;;5046558;28;20199;-85
2023/05/11 05:16:27;;;;;;;4.77;2.63;;;;;;;;;;5015982;28;20216;-83
2023/05/11 05:18:53;;;;;;;2.90;2.20;;;9.30;92.30;;;;;;5020636;28;20209;-84
2023/05/11 05:21:19;;;;;;;3.17;2.33;;;;;;;;;;5028527;28;20220;-85
2023/05/11 05:23:45;;;;;;;5.27;3.43;;;9.40;90.60;;;;;;5036414;28;20178;-87
2023/05/11 05:26:10;;;;;;;4.13;2.58;;;9.40;91.00;;;;;;5002651;28;20189;-84
2023/05/11 05:28:37;;;;;;;3.20;2.58;;;;;;;;;;5048101;28;20189;-86
2023/05/11 05:31:03;;;;;;;5.15;2.53;;;9.50;90.70;;;;;;5033278;28;20193;-86
2023/05/11 05:33:29;;;;;;;3.37;2.40;;;;;;;;;;5032435;28;20256;-88
2023/05/11 05:35:55;;;;;;;5.03;2.97;;;9.70;91.00;;;;;;5017652;28;20201;-88
2023/05/11 05:38:21;;;;;;;8.50;3.10;;;;;;;;;;5016707;28;20348;-85
2023/05/11 05:40:47;;;;;;;8.95;3.00;;;10.00;90.30;;;;;;5016523;28;20213;-85
2023/05/11 05:43:12;;;;;;;7.30;2.47;;;10.10;91.50;;;;;;5014863;28;20189;-86
2023/05/11 05:45:38;;;;;;;4.50;2.67;;;;;;;;;;5016038;28;20193;-87
2023/05/11 05:48:05;;;;;;;2.83;2.03;;;10.30;88.30;;;;;;5025449;28;20201;-84
2023/05/11 05:50:31;;;;;;;3.53;2.33;;;10.40;87.70;;;;;;5031697;28;20200;-85
2023/05/11 05:52:57;;;;;;;4.33;2.63;;;10.60;87.40;;;;;;5040894;28;20185;-86
2023/05/11 05:55:23;;;;;;;3.10;2.30;;;;;;;;;;5015610;28;20231;-86
2023/05/11 05:57:49;;;;;;;3.15;2.53;;;10.80;85.20;;;;;;5017759;28;20204;-87
2023/05/11 06:00:15;;;;;;;3.13;2.30;;;11.00;87.70;;;;;;5050238;28;20205;-87
2023/05/11 06:02:41;;;;;;;5.80;2.45;;;11.10;85.60;;;;;;5016736;28;20225;-86
2023/05/11 06:05:07;;;;;;;5.53;3.38;;;11.20;83.60;;;;;;5048856;28;20687;-86
2023/05/11 06:07:33;;;;;;;5.63;2.40;;;11.30;84.10;;;;;;5005905;28;20189;-86
2023/05/11 06:09:59;;;;;;;7.72;3.20;;;;;;;;;;5019515;28;20760;-86
2023/05/11 06:12:25;;;;;;;5.03;2.40;;;11.40;81.70;;;;;;4996419;28;20189;-85
2023/05/11 06:14:51;;;;;;;4.68;2.15;;;;;;;;;;5016263;28;20571;-87
2023/05/11 06:17:17;;;;;;;4.00;2.38;;;11.70;81.50;;;;;;5016448;28;20197;-86
2023/05/11 06:19:43;;;;;;;4.53;2.45;;;;;;;;;;5015737;28;20248;-86
2023/05/11 06:22:09;;;;;;;3.88;2.30;;;11.80;78.80;;;;;;5016178;28;20193;-86
2023/05/11 06:24:35;;;;;;;3.92;2.50;;;;;;;;;;5031375;28;20187;-87
2023/05/11 06:27:01;;;;;;;3.75;2.33;;;11.90;80.10;;;;;;5014559;28;20588;-86
2023/05/11 06:29:27;;;;;;;3.60;2.53;;;12.00;80.80;;;;;;5014445;28;20181;-89
2023/05/11 06:31:54;;;;;;;6.03;2.33;;;;;;;;;;5015442;28;20673;-87
2023/05/11 06:34:21;;;;;;;4.60;2.60;;;12.30;84.60;;;;;;5032061;28;20654;-89
2023/05/11 06:36:50;;;;;;;4.95;2.30;;;12.40;78.20;;;;;;5046931;28;20193;-86
2023/05/11 06:39:16;;;;;;;7.07;2.60;;;12.50;77.20;;;;;;5047540;28;20290;-89
2023/05/11 06:41:43;;;;;;;2.60;1.90;;;12.60;83.50;;;;;;4999136;28;20204;-90
2023/05/11 06:44:08;;;;;;;4.75;2.30;;;12.60;77.70;;;;;;5030998;28;20722;-91
2023/05/11 06:46:34;;;;;;;3.17;1.95;;;;;;;;;;5048581;28;20251;-90
2023/05/11 06:49:00;;;;;;;5.43;2.50;;;12.90;78.60;;;;;;4996429;28;20190;-90
2023/05/11 06:51:26;;;;;;;6.45;2.63;;;13.10;78.20;;;;;;5014734;28;20704;-87
2023/05/11 06:53:52;;;;;;;4.25;2.13;;;13.20;78.30;;;;;;5015502;28;20182;-89
2023/05/11 06:56:18;;;;;;;5.55;2.28;;;;;;;;;;5015724;28;20654;-90
2023/05/11 06:58:43;;;;;;;4.60;2.05;;;13.40;74.90;;;;;;5031261;28;20177;-90
2023/05/11 07:01:10;;;;;;;4.75;1.98;;;13.40;76.20;;;;;;5037297;28;20227;-90
2023/05/11 07:03:36;;;;;;;4.68;2.03;;;13.60;77.00;;;;;;5038125;28;20189;-90
2023/05/11 07:06:02;;;;;;;4.68;2.72;;;13.80;75.30;;;;;;5038035;28;20169;-88
2023/05/11 07:08:28;;;;;;;3.03;1.70;;;13.70;76.20;;;;;;5022190;28;20169;-89
2023/05/11 07:10:54;;;;;;;2.08;1.60;;;;;;;;;;5030262;28;20201;-90
2023/05/11 07:13:19;;;;;;;3.70;1.98;;;14.60;93.00;;;;;;5020876;28;20232;-90
2023/05/11 07:15:45;;;;;;;2.60;1.90;;;14.10;94.80;;;;;;5019247;28;20193;-91
2023/05/11 07:18:11;;;;;;;5.00;1.80;;;14.30;74.60;;;;;;5034168;28;20189;-90
2023/05/11 07:20:38;;;;;;;4.95;2.25;;;;;;;;;;4996384;28;20575;-90
2023/05/11 07:23:04;;;;;;;3.92;2.33;;;14.50;73.90;;;;;;5015682;28;20182;-89
2023/05/11 07:25:30;;;;;;;3.65;2.22;;;;;;;;;;4995371;28;20335;-90
2023/05/11 07:27:56;;;;;;;5.22;2.15;;;14.40;86.30;;;;;;4998217;28;20185;-89
2023/05/11 07:30:24;;;;;;;3.80;2.22;;;;;;;;;;5014216;28;20187;-89
2023/05/11 07:32:50;;;;;;;3.67;2.40;;;;;;;;;;5015472;28;20245;-88
2023/05/11 07:35:16;;;;;;;2.47;2.15;;;14.90;71.40;;;;;;5026880;28;20181;-89
2023/05/11 07:37:42;;;;;;;7.00;2.72;;;;;;;;;;5054293;28;20292;-89
2023/05/11 07:40:09;;;;;;;4.75;2.38;;;;;;;;;;5019066;28;20700;-88
2023/05/11 07:42:35;;;;;;;2.88;1.83;;;;;;;;;;5019774;28;20209;-89
2023/05/11 07:45:00;;;;;;;5.22;1.95;;;15.30;76.40;;;;;;5048304;28;20197;-89
2023/05/11 07:47:26;;;;;;;6.93;1.75;;;;;;;;;;5014960;28;20189;-88
2023/05/11 07:49:52;;;;;;;18.50;4.13;;;15.40;67.10;;;;;;5013106;28;20219;-85
2023/05/11 07:52:18;;;;;;;10.30;1.98;;;;;;;;;;4996622;28;20212;-86
2023/05/11 07:54:44;;;;;;;16.45;2.92;;;;;;;;;;5014140;28;20664;-86
2023/05/11 07:57:10;;;;;;;4.47;2.20;;;16.00;80.80;;;;;;5013290;28;20196;-86
2023/05/11 07:59:36;;;;;;;4.10;1.85;;;16.20;80.00;;;;;;5013622;28;20177;-87
2023/05/11 08:02:03;;;;;;;1.52;1.30;;;16.20;67.70;;;;;;5013414;28;20227;-88
2023/05/11 08:04:29;;;;;;;2.28;1.58;;;16.10;59.70;;;;;;5015549;28;20247;-87
2023/05/11 08:06:57;;;;;;;2.67;1.70;;;;;;;;;;5013968;28;20534;-87
2023/05/11 08:09:23;;;;;;;2.35;1.50;;;16.00;59.00;;;;;;5013453;28;20183;-85
2023/05/11 08:11:48;;;;;;;2.45;1.83;;;16.00;58.40;;;;;;5030587;28;20292;-84
2023/05/11 08:14:14;;;;;;;2.83;1.75;;;15.80;56.80;;;;;;5030030;28;20177;-85
2023/05/11 08:16:40;;;;;;;3.67;2.00;;;15.80;58.70;;;;;;5015076;28;20638;-84
2023/05/11 08:19:06;;;;;;;5.03;1.90;;;16.00;60.20;;;;;;5029775;28;20181;-85
2023/05/11 08:21:31;;;;;;;2.97;1.83;;;16.10;59.30;;;;;;5030003;28;20355;-85
2023/05/11 08:23:57;;;;;;;3.40;1.77;;;16.10;56.70;;;;;;5013608;28;20189;-84
2023/05/11 08:26:24;;;;;;;2.60;1.80;;;16.20;56.50;;;;;;5014738;28;20181;-85
2023/05/11 08:28:51;;;;;;;4.80;1.90;;;16.30;56.70;;;;;;5046601;28;20307;-86
2023/05/11 08:31:17;;;;;;;4.10;1.73;;;16.40;56.70;;;;;;5033936;28;20189;-86
2023/05/11 08:33:43;;;;;;;5.85;1.83;;;16.40;54.00;;;;;;5019573;28;20269;-86
2023/05/11 08:36:11;;;;;;;1.88;1.58;;;16.40;55.20;;;;;;5024079;28;20247;-86
2023/05/11 08:38:37;;;;;;;2.53;1.38;;;16.40;53.10;;;;;;5039426;28;20228;-86
2023/05/11 08:41:03;;;;;;;4.90;1.60;;;16.40;54.00;;;;;;5024240;28;20781;-87
2023/05/11 08:43:31;;;;;;;1.38;1.27;;;16.40;54.10;;;;;;5024029;28;20242;-87
2023/05/11 08:46:02;;;;;;;5.38;1.52;;;16.50;52.80;;;;;;5056024;28;20176;-86
2023/05/11 08:48:29;;;;;;;2.08;1.40;;;16.50;53.00;;;;;;5026329;28;20225;-86
2023/05/11 08:50:55;;;;;;;1.73;1.63;;;16.70;53.00;;;;;;5057644;28;20212;-87
2023/05/11 08:53:22;;;;;;;2.90;1.60;;;16.70;52.20;;;;;;5025504;28;20185;-86
2023/05/11 08:55:50;;;;;;;5.68;1.45;;;16.70;51.40;;;;;;5059075;28;20181;-87
2023/05/11 08:58:21;;;;;;;2.42;1.40;;;16.80;51.00;;;;;;5044088;28;20681;-87
2023/05/11 09:00:50;;;;;;;5.72;1.90;;;17.00;50.70;;;;;;5034297;28;20193;-87
2023/05/11 09:03:20;;;;;;;1.45;1.20;;;17.20;51.60;;;;;;5070639;28;20204;-87
2023/05/11 09:05:47;;;;;;;2.17;1.50;;;17.10;50.50;;;;;;5058066;28;20196;-85
2023/05/11 09:08:14;;;;;;;2.25;1.23;;;17.30;50.90;;;;;;5050783;28;20200;-84
2023/05/11 09:10:40;;;;;;;1.58;1.35;;;17.50;51.10;;;;;;5048790;28;20181;-84
2023/05/11 09:13:06;;;;;;;1.90;1.60;;;17.70;51.30;;;;;;5033657;28;20181;-85
2023/05/11 09:15:31;;;;;;;1.77;1.40;;;18.00;50.40;;;;;;5033452;28;20211;-87
2023/05/11 09:17:58;;;;;;;4.13;1.55;;;17.70;49.60;;;;;;5033259;28;20268;-86
2023/05/11 09:20:28;;;;;;;2.22;1.65;;;17.70;47.90;;;;;;5017586;28;20205;-86
2023/05/11 09:22:55;;;;;;;2.80;1.48;;;17.90;49.80;;;;;;5052566;28;20181;-87
2023/05/11 09:25:22;;;;;;;2.83;1.58;;;17.90;48.80;;;;;;5018258;28;20178;-87
2023/05/11 09:27:48;;;;;;;2.08;1.50;;;17.90;49.90;;;;;;5019875;28;20205;-86
2023/05/11 09:30:17;;;;;;;2.00;1.45;;;18.00;49.70;;;;;;5013895;28;20196;-86
2023/05/11 09:32:53;;;;;;;1.77;1.67;;;18.10;50.80;;;;;;5051231;28;20211;-87
2023/05/11 09:35:27;;;;;;;2.92;1.60;;;18.00;48.60;;;;;;5052694;28;20180;-87
2023/05/11 09:38:07;;;;;;;2.03;1.63;;;18.30;50.40;;;;;;5053362;28;20224;-86
2023/05/11 09:40:39;;;;;;;2.25;1.50;;;18.40;49.50;;;;;;5016755;28;20201;-87
2023/05/11 09:43:23;;;;;;;2.70;1.67;;;18.30;48.00;;;;;;5017980;28;20622;-86
2023/05/11 09:45:50;;;;;;;3.10;1.60;;;18.50;47.60;;;;;;5051115;28;20268;-87
2023/05/11 09:48:19;;;;;;;2.97;1.83;;;18.40;47.90;;;;;;5017695;28;20243;-87
2023/05/11 09:50:49;;;;;;;2.42;1.52;;;18.40;47.90;;;;;;5049908;28;20185;-87
2023/05/11 09:53:15;;;;;;;3.22;1.50;;;17.50;46.90;;;;;;5016183;28;20165;-87
2023/05/11 09:55:52;;;;;;;1.48;1.20;;;18.50;47.70;;;;;;5050479;28;20638;-86
2023/05/11 09:58:18;;;;;;;10.05;1.77;;;18.50;48.00;;;;;;5018398;28;20169;-88
2023/05/11 10:00:51;;;;;;;1.77;1.67;;;18.50;50.00;;;;;;5048738;28;20699;-86
2023/05/11 10:03:17;;;;;;;1.73;1.42;;;18.60;47.50;;;;;;5045539;28;20182;-85
2023/05/11 10:05:59;;;;;;;1.55;1.45;;;18.70;47.20;;;;;;5046377;28;20273;-87
2023/05/11 10:08:33;;;;;;;2.22;1.55;;;18.80;46.80;;;;;;5013380;28;20161;-86
2023/05/11 10:11:04;;;;;;;3.22;1.80;;;18.80;46.10;;;;;;5013577;28;20236;-87
2023/05/11 10:13:32;;;;;;;1.70;1.45;;;18.90;46.20;;;;;;5023014;28;20649;-88
2023/05/11 10:16:05;;;;;;;3.35;1.40;;;19.10;47.80;;;;;;5033840;28;20189;-86
2023/05/11 10:18:33;;;;;;;2.15;1.40;;;19.30;47.90;;;;;;5029236;28;20177;-88
2023/05/11 10:20:59;;;;;;;2.78;1.40;;;19.10;47.10;;;;;;5064187;28;20209;-90
2023/05/11 10:23:25;;;;;;;1.55;1.38;;;19.20;46.40;;;;;;5049016;28;20654;-90
2023/05/11 10:25:52;;;;;;;1.88;1.52;;;19.20;45.90;;;;;;5063869;28;20193;-88
2023/05/11 10:28:19;;;;;;;1.40;1.30;;;19.10;46.60;;;;;;5059615;28;20196;-88
2023/05/11 10:30:46;;;;;;;1.35;1.25;;;19.10;45.90;;;;;;5035068;28;20252;-87
2023/05/11 10:33:13;;;;;;;1.45;1.10;;;19.00;44.60;;;;;;5047728;28;20181;-87
2023/05/11 10:35:41;;;;;;;1.70;1.30;;;19.10;45.70;;;;;;5042285;28;21021;-90
2023/05/11 10:38:08;;;;;;;2.17;1.67;;;19.20;46.50;;;;;;5060201;28;20241;-85
2023/05/11 10:40:39;;;;;;;2.10;1.33;;;19.60;45.90;;;;;;5030462;28;20200;-85
2023/05/11 10:43:20;;;;;;;1.75;1.30;;;19.60;43.90;;;;;;5034537;28;20185;-88
2023/05/11 10:46:21;;;;;;;1.98;1.50;;;19.60;44.10;;;;;;5034720;28;20169;-87
2023/05/11 10:48:56;;;;;;;2.13;1.50;;;19.70;44.60;;;;;;5030712;28;20189;-88
2023/05/11 10:51:30;;;;;;;2.40;1.50;;;19.90;46.10;;;;;;5063525;28;20196;-88
2023/05/11 10:54:28;;;;;;;1.83;1.40;;;19.40;43.50;;;;;;5026449;28;20169;-85
2023/05/11 10:57:14;;;;;;;2.33;1.20;;;19.40;44.00;;;;;;5022202;28;20153;-87
2023/05/11 10:59:40;;;;;;;1.73;0.98;;;19.50;45.10;;;;;;5053129;28;20211;-85
2023/05/11 11:02:07;;;;;;;2.20;1.33;;;19.50;45.10;;;;;;5020755;28;20662;-88
2023/05/11 11:04:48;;;;;;;4.38;1.27;;;19.50;44.70;;;;;;5053209;28;20177;-87
2023/05/11 11:07:17;;;;;;;1.27;1.17;;;19.60;44.60;;;;;;5037130;28;20184;-87
2023/05/11 11:10:05;;;;;;;2.13;1.50;;;19.60;45.10;;;;;;5037480;28;20181;-89
2023/05/11 11:12:33;;;;;;;1.75;1.20;;;19.50;43.40;;;;;;5052730;28;20630;-89
2023/05/11 11:15:13;;;;;;;1.25;1.15;;;19.50;43.70;;;;;;5022120;28;20197;-90
2023/05/11 11:17:39;;;;;;;2.80;1.25;;;19.50;42.80;;;;;;5040757;28;20354;-88
2023/05/11 11:20:06;;;;;;;1.98;1.40;;;19.80;44.10;;;;;;5054358;28;20173;-91
2023/05/11 11:22:35;;;;;;;1.52;1.42;;;20.30;45.80;;;;;;5058130;28;20220;-89
2023/05/11 11:25:17;;;;;;;1.52;1.25;;;20.00;49.20;;;;;;5050101;28;20219;-90
2023/05/11 11:27:43;;;;;;;2.13;1.10;;;;;;;;;;5051827;28;20214;-89
2023/05/11 11:30:19;;;;;;;1.20;1.10;;;20.20;42.40;;;;;;5016685;28;20177;-87
2023/05/11 11:32:48;;;;;;;2.20;1.35;;;20.00;42.40;;;;;;5054540;28;20304;-87
2023/05/11 11:35:42;;;;;;;2.78;1.55;;;20.10;43.70;;;;;;5021262;28;20181;-89
2023/05/11 11:38:16;;;;;;;2.80;1.48;;;20.30;42.60;;;;;;5053400;28;20236;-89
2023/05/11 11:40:50;;;;;;;1.77;1.25;;;20.30;43.60;;;;;;5051879;28;20197;-88
2023/05/11 11:43:18;;;;;;;1.92;1.30;;;20.20;42.40;;;;;;5035706;28;20556;-89
2023/05/11 11:45:57;;;;;;;3.92;2.15;;;20.20;43.00;;;;;;5054820;28;20173;-88
2023/05/11 11:48:34;;;;;;;5.55;1.33;;;20.20;45.10;;;;;;5053628;28;20630;-89
2023/05/11 11:51:10;;;;;;;1.38;1.27;;;20.40;42.80;;;;;;5020519;28;20188;-89
2023/05/11 11:53:36;;;;;;;1.52;1.40;;;20.40;42.90;;;;;;5021654;28;20220;-89
2023/05/11 11:56:06;;;;;;;1.30;1.20;;;20.50;43.10;;;;;;5021166;28;20204;-89
2023/05/11 11:58:44;;;;;;;1.65;1.40;;;20.30;42.60;;;;;;5025449;28;20207;-90
2023/05/11 12:01:16;;;;;;;2.15;1.60;;;20.40;42.70;;;;;;5055658;28;20264;-89
2023/05/11 12:03:45;;;;;;;2.40;1.50;;;20.40;42.40;;;;;;5022930;28;20177;-90
2023/05/11 12:06:12;;;;;;;1.92;1.13;;;20.20;41.50;;;;;;5056841;28;20201;-90
2023/05/11 12:08:39;;;;;;;1.98;1.38;;;20.20;42.70;;;;;;5057081;28;20693;-89
2023/05/11 12:11:06;;;;;;;1.73;1.30;;;20.20;43.10;;;;;;5021258;28;20178;-89
2023/05/11 12:13:34;;;;;;;2.58;1.55;;;20.10;42.50;;;;;;5052577;28;20177;-89
2023/05/11 12:16:11;;;;;;;3.60;1.70;;;20.10;41.30;;;;;;5056514;28;20244;-90
2023/05/11 12:18:37;;;;;;;1.83;1.23;;;20.10;42.80;;;;;;5055718;28;20709;-88
2023/05/11 12:21:03;;;;;;;3.38;1.20;;;20.20;42.70;;;;;;5021150;28;20685;-89
2023/05/11 12:23:31;;;;;;;1.52;1.20;;;20.20;42.30;;;;;;5019252;28;20343;-89
2023/05/11 12:26:02;;;;;;;5.95;1.48;;;20.20;44.80;;;;;;5036317;28;20208;-89
2023/05/11 12:28:28;;;;;;;3.72;1.50;;;20.00;41.30;;;;;;5018563;28;20179;-88
2023/05/11 12:30:55;;;;;;;2.38;1.50;;;20.20;42.40;;;;;;5016101;28;20212;-88
2023/05/11 12:33:21;;;;;;;2.53;1.30;;;20.50;42.30;;;;;;5018813;28;20184;-88
2023/05/11 12:35:55;;;;;;;2.08;1.20;;;20.60;42.30;;;;;;5020490;28;20181;-88
2023/05/11 12:38:21;;;;;;;1.70;1.38;;;20.40;41.20;;;;;;5025300;28;20248;-89
2023/05/11 12:40:51;;;;;;;1.15;1.05;;;20.40;44.10;;;;;;5037737;28;20229;-89
2023/05/11 12:43:20;;;;;;;1.42;1.25;;;20.60;43.30;;;;;;5061745;28;20185;-90
2023/05/11 12:45:47;;;;;;;1.90;1.23;;;21.00;41.10;;;;;;5015322;28;20173;-91
2023/05/11 12:48:15;;;;;;;2.20;1.13;;;21.00;41.80;;;;;;5014185;28;20227;-88
2023/05/11 12:50:42;;;;;;;4.28;1.40;;;21.10;40.50;;;;;;5015589;28;20178;-89
2023/05/11 12:53:13;;;;;;;2.22;1.33;;;21.20;40.80;;;;;;5015340;28;20169;-89
2023/05/11 12:55:38;;;;;;;1.38;1.15;;;21.30;40.80;;;;;;5013511;28;20210;-87
2023/05/11 12:58:07;;;;;;;2.10;1.65;;;21.30;41.10;;;;;;5014972;28;20256;-88
2023/05/11 13:00:33;;;;;;;2.65;1.17;;;21.20;40.50;;;;;;5046761;28;20200;-87
2023/05/11 13:02:59;;;;;;;2.85;1.45;;;21.00;41.00;;;;;;5047013;28;20207;-87
2023/05/11 13:05:26;;;;;;;2.10;1.30;;;21.10;41.00;;;;;;4997505;28;20181;-89
2023/05/11 13:08:04;;;;;;;2.78;1.52;;;20.90;39.60;;;;;;5046006;28;20275;-90
2023/05/11 13:10:30;;;;;;;1.75;1.20;;;20.90;40.30;;;;;;5015101;28;20256;-87
2023/05/11 13:12:56;;;;;;;3.15;1.13;;;20.90;40.60;;;;;;5029281;28;20181;-87
2023/05/11 13:15:23;;;;;;;4.05;1.30;;;20.90;40.60;;;;;;5013063;28;20174;-90
2023/05/11 13:18:00;;;;;;;1.50;1.15;;;19.00;38.00;;;;;;5012573;28;20189;-86
2023/05/11 13:20:26;;;;;;;1.75;1.05;;;;;;;;;;5046534;28;20220;-86
2023/05/11 13:23:09;;;;;;;1.70;1.50;;;20.70;38.80;;;;;;5012538;28;20576;-86